createdAt,value
2018-11-04T00:00:01.497Z,50.43
2018-11-04T00:02:31.686Z,56.17
2018-11-04T00:05:01.939Z,53.40
2018-11-04T00:07:32.138Z,43.67
2018-11-04T00:10:02.351Z,47.63
2018-11-04T00:12:32.538Z,56.97
2018-11-04T00:15:02.670Z,62.87
2018-11-04T00:17:33.005Z,52.33
2018-11-04T00:20:03.172Z,49.27
2018-11-04T00:22:33.342Z,48.03
2018-11-04T00:25:03.477Z,45.50
2018-11-04T00:27:33.687Z,49.67
2018-11-04T00:30:03.946Z,52.23
2018-11-04T00:32:34.109Z,44.93
2018-11-04T00:35:04.349Z,54.50
2018-11-04T00:37:34.512Z,62.47
2018-11-04T00:40:04.809Z,51.73
2018-11-04T00:42:34.943Z,50.50
2018-11-04T00:45:05.869Z,47.70
2018-11-04T00:47:36.040Z,59.80
2018-11-04T00:50:08.349Z,61.63
2018-11-04T00:52:38.474Z,51.90
2018-11-04T00:55:09.104Z,55.97
2018-11-04T00:57:39.281Z,51.47
2018-11-04T01:00:12.739Z,50.93
2018-11-04T01:02:43.436Z,46.50
2018-11-04T01:05:13.631Z,53.37
2018-11-04T01:07:43.915Z,54.87
2018-11-04T01:10:14.230Z,51.83
2018-11-04T01:12:44.938Z,69.83
2018-11-04T01:15:15.833Z,57.47
2018-11-04T01:17:46.030Z,60.57
2018-11-04T01:20:17.241Z,62.53
2018-11-04T01:22:47.380Z,55.73
2018-11-04T01:25:17.598Z,59.13
2018-11-04T01:27:47.780Z,63.27
2018-11-04T01:30:18.059Z,70.50
2018-11-04T01:32:48.219Z,62.30
2018-11-04T01:35:18.386Z,57.23
2018-11-04T01:37:48.603Z,54.57
2018-11-04T01:40:18.750Z,70.10
2018-11-04T01:42:48.966Z,69.73
2018-11-04T01:45:19.072Z,75.40
2018-11-04T01:47:49.275Z,68.87
2018-11-04T01:50:19.395Z,60.20
2018-11-04T01:52:49.537Z,65.87
2018-11-04T01:55:19.703Z,69.13
2018-11-04T01:57:49.818Z,71.37
2018-11-04T02:00:19.990Z,58.27
2018-11-04T02:02:50.190Z,62.53
2018-11-04T02:05:20.419Z,63.90
2018-11-04T02:07:50.710Z,66.43
2018-11-04T02:10:20.848Z,66.13
2018-11-04T02:12:51.010Z,53.40
2018-11-04T02:15:21.151Z,51.20
2018-11-04T02:17:51.273Z,69.40
2018-11-04T02:20:21.484Z,72.77
2018-11-04T02:22:51.578Z,72.23
2018-11-04T02:25:21.743Z,69.13
2018-11-04T02:27:51.887Z,69.67
2018-11-04T02:30:22.138Z,68.47
2018-11-04T02:32:52.296Z,66.00
2018-11-04T02:35:22.463Z,59.73
2018-11-04T02:37:52.628Z,67.20
2018-11-04T02:40:22.782Z,69.87
2018-11-04T02:42:52.897Z,57.67
2018-11-04T02:45:23.106Z,53.73
2018-11-04T02:47:53.241Z,55.70
2018-11-04T02:50:23.401Z,58.60
2018-11-04T02:52:55.521Z,61.70
2018-11-04T02:55:25.647Z,72.87
2018-11-04T02:57:55.808Z,56.23
2018-11-04T03:00:25.953Z,67.83
2018-11-04T03:02:56.112Z,65.20
2018-11-04T03:05:26.227Z,66.10
2018-11-04T03:07:56.390Z,59.07
2018-11-04T03:10:26.571Z,80.90
2018-11-04T03:12:56.795Z,70.80
2018-11-04T03:15:26.960Z,76.17
2018-11-04T03:17:57.141Z,70.40
2018-11-04T03:20:27.328Z,66.33
2018-11-04T03:22:57.477Z,72.40
2018-11-04T03:25:27.689Z,74.13
2018-11-04T03:27:57.789Z,66.03
2018-11-04T03:30:28.045Z,68.87
2018-11-04T03:32:58.178Z,69.80
2018-11-04T03:35:28.383Z,78.87
2018-11-04T03:37:58.508Z,74.40
2018-11-04T03:40:28.796Z,70.67
2018-11-04T03:42:58.915Z,71.90
2018-11-04T03:45:29.098Z,70.13
2018-11-04T03:47:59.226Z,66.13
2018-11-04T03:50:29.377Z,77.00
2018-11-04T03:53:05.488Z,81.10
2018-11-04T03:55:36.637Z,92.30
2018-11-04T03:58:06.942Z,75.63
2018-11-04T04:00:37.056Z,76.73
2018-11-04T04:03:07.257Z,78.07
2018-11-04T04:05:37.437Z,60.00
2018-11-04T04:08:07.782Z,55.20
2018-11-04T04:10:37.946Z,62.10
2018-11-04T04:13:08.133Z,55.87
2018-11-04T04:15:38.257Z,62.20
2018-11-04T04:18:08.455Z,53.37
2018-11-04T04:20:38.607Z,62.90
2018-11-04T04:23:08.760Z,62.30
2018-11-04T04:25:38.940Z,62.13
2018-11-04T04:28:09.073Z,62.70
2018-11-04T04:30:39.250Z,70.87
2018-11-04T04:33:09.372Z,65.37
2018-11-04T04:35:39.568Z,73.07
2018-11-04T04:38:09.705Z,73.37
2018-11-04T04:40:39.927Z,71.87
2018-11-04T04:43:10.054Z,71.97
2018-11-04T04:45:40.201Z,66.60
2018-11-04T04:48:10.405Z,68.20
2018-11-04T04:50:40.573Z,85.73
2018-11-04T04:53:10.778Z,59.03
2018-11-04T04:55:40.916Z,61.30
2018-11-04T04:58:11.102Z,67.47
2018-11-04T05:00:41.232Z,66.10
2018-11-04T05:03:11.398Z,50.53
2018-11-04T05:05:41.592Z,51.10
2018-11-04T05:08:11.874Z,57.23
2018-11-04T05:10:42.045Z,44.03
2018-11-04T05:13:12.224Z,44.00
2018-11-04T05:15:42.371Z,45.50
2018-11-04T05:18:12.552Z,52.67
2018-11-04T05:20:42.859Z,48.73
2018-11-04T05:23:13.012Z,48.63
2018-11-04T05:25:43.206Z,58.07
2018-11-04T05:28:13.349Z,54.70
2018-11-04T05:30:43.560Z,50.93
2018-11-04T05:33:13.745Z,49.30
2018-11-04T05:35:43.956Z,60.40
2018-11-04T05:38:14.144Z,53.23
2018-11-04T05:40:44.298Z,48.90
2018-11-04T05:43:14.549Z,49.30
2018-11-04T05:45:44.773Z,58.40
2018-11-04T05:48:14.976Z,63.73
2018-11-04T05:50:45.169Z,50.93
2018-11-04T05:53:15.370Z,54.50
2018-11-04T05:55:45.509Z,47.83
2018-11-04T05:58:15.763Z,53.80
2018-11-04T06:00:45.903Z,55.60
2018-11-04T06:03:16.131Z,54.30
2018-11-04T06:05:46.233Z,54.03
2018-11-04T06:08:16.361Z,54.57
2018-11-04T06:10:46.586Z,58.83
2018-11-04T06:13:16.796Z,60.23
2018-11-04T06:15:46.896Z,67.57
2018-11-04T06:18:17.089Z,68.90
2018-11-04T06:20:47.307Z,63.67
2018-11-04T06:23:17.444Z,63.60
2018-11-04T06:25:47.610Z,54.67
2018-11-04T06:28:17.773Z,57.77
2018-11-04T06:30:48.004Z,58.17
2018-11-04T06:33:18.222Z,57.97
2018-11-04T06:35:48.568Z,60.40
2018-11-04T06:38:18.754Z,65.70
2018-11-04T06:40:49.020Z,64.30
2018-11-04T06:43:19.259Z,59.00
2018-11-04T06:45:49.414Z,67.23
2018-11-04T06:48:19.598Z,61.97
2018-11-04T06:50:49.759Z,61.60
2018-11-04T06:53:19.879Z,58.90
2018-11-04T06:55:50.052Z,62.07
2018-11-04T06:58:20.157Z,62.93
2018-11-04T07:00:50.308Z,69.57
2018-11-04T07:03:20.525Z,64.20
2018-11-04T07:05:50.718Z,61.33
2018-11-04T07:08:20.885Z,62.33
2018-11-04T07:10:51.096Z,65.30
2018-11-04T07:13:21.237Z,64.03
2018-11-04T07:15:51.787Z,60.33
2018-11-04T07:18:22.367Z,61.27
2018-11-04T07:20:52.790Z,68.97
2018-11-04T07:23:23.285Z,67.33
2018-11-04T07:25:53.631Z,63.00
2018-11-04T07:28:23.876Z,61.17
2018-11-04T07:30:54.185Z,65.80
2018-11-04T07:33:24.678Z,69.30
2018-11-04T07:35:55.097Z,66.83
2018-11-04T07:38:25.457Z,72.03
2018-11-04T07:40:55.722Z,63.13
2018-11-04T07:43:26.058Z,58.80
2018-11-04T07:45:56.303Z,65.07
2018-11-04T07:48:26.668Z,70.33
2018-11-04T07:50:56.943Z,64.03
2018-11-04T07:53:27.322Z,67.50
2018-11-04T07:55:57.654Z,60.87
2018-11-04T07:58:27.905Z,62.87
2018-11-04T08:00:58.211Z,76.70
2018-11-04T08:03:28.315Z,73.67
2018-11-04T08:05:58.571Z,66.03
2018-11-04T08:08:28.684Z,60.23
2018-11-04T08:10:58.977Z,73.10
2018-11-04T08:13:29.107Z,83.63
2018-11-04T08:15:59.284Z,73.67
2018-11-04T08:18:29.472Z,61.00
2018-11-04T08:20:59.642Z,67.33
2018-11-04T08:23:29.754Z,64.43
2018-11-04T08:26:00.010Z,67.40
2018-11-04T08:28:30.115Z,59.23
2018-11-04T08:31:00.253Z,57.10
2018-11-04T08:33:30.629Z,60.57
2018-11-04T08:36:00.783Z,57.40
2018-11-04T08:38:31.053Z,55.67
2018-11-04T08:41:01.282Z,53.50
2018-11-04T08:43:31.522Z,62.13
2018-11-04T08:46:01.809Z,59.77
2018-11-04T08:48:32.070Z,59.50
2018-11-04T08:51:02.427Z,58.13
2018-11-04T08:53:32.787Z,56.93
2018-11-04T08:56:02.991Z,54.90
2018-11-04T08:58:33.328Z,56.23
2018-11-04T09:01:03.598Z,53.70
2018-11-04T09:03:34.006Z,61.13
2018-11-04T09:06:17.308Z,59.40
2018-11-04T09:08:47.955Z,58.67
2018-11-04T09:11:18.315Z,67.40
2018-11-04T09:13:48.713Z,58.70
2018-11-04T09:16:19.026Z,68.00
2018-11-04T09:18:49.259Z,58.50
2018-11-04T09:21:19.560Z,69.80
2018-11-04T09:23:49.789Z,60.03
2018-11-04T09:26:19.978Z,56.93
2018-11-04T09:28:50.213Z,57.57
2018-11-04T09:31:20.514Z,55.57
2018-11-04T09:33:50.778Z,58.10
2018-11-04T09:36:22.500Z,53.57
2018-11-04T09:38:53.841Z,56.03
2018-11-04T09:41:24.150Z,54.93
2018-11-04T09:43:54.468Z,57.23
2018-11-04T09:46:25.025Z,55.83
2018-11-04T09:48:55.298Z,54.87
2018-11-04T09:51:25.657Z,50.67
2018-11-04T09:53:55.940Z,53.30
2018-11-04T09:56:26.248Z,47.80
2018-11-04T09:58:56.655Z,52.77
2018-11-04T10:01:29.197Z,50.80
2018-11-04T10:04:01.710Z,49.93
2018-11-04T10:06:34.298Z,46.20
2018-11-04T10:09:09.665Z,48.40
2018-11-04T10:11:40.807Z,41.63
2018-11-04T10:14:13.631Z,48.33
2018-11-04T10:16:44.042Z,44.83
2018-11-04T10:19:40.597Z,41.57
2018-11-04T10:22:12.092Z,44.57
2018-11-04T10:24:43.710Z,46.80
2018-11-04T10:27:14.225Z,42.63
2018-11-04T10:29:44.664Z,44.07
2018-11-04T10:32:15.102Z,42.90
2018-11-04T10:34:45.853Z,44.13
2018-11-04T10:37:16.507Z,40.13
2018-11-04T10:39:46.953Z,42.47
2018-11-04T10:42:17.248Z,44.70
2018-11-04T10:44:47.821Z,39.73
2018-11-04T10:47:18.036Z,46.77
2018-11-04T10:49:48.374Z,40.67
2018-11-04T10:52:18.698Z,43.10
2018-11-04T10:54:48.914Z,39.93
2018-11-04T10:57:19.102Z,42.33
2018-11-04T10:59:49.512Z,43.77
2018-11-04T11:02:19.935Z,45.30
2018-11-04T11:04:50.109Z,41.93
2018-11-04T11:07:20.412Z,42.97
2018-11-04T11:09:50.663Z,41.17
2018-11-04T11:12:20.909Z,43.77
2018-11-04T11:14:51.181Z,41.07
2018-11-04T11:17:21.399Z,39.60
2018-11-04T11:19:51.718Z,42.63
2018-11-04T11:22:21.930Z,40.17
2018-11-04T11:24:52.225Z,36.73
2018-11-04T11:27:22.482Z,38.10
2018-11-04T11:29:52.754Z,42.07
2018-11-04T11:32:23.130Z,37.60
2018-11-04T11:34:53.403Z,38.33
2018-11-04T11:37:23.690Z,39.87
2018-11-04T11:39:53.988Z,37.77
2018-11-04T11:42:24.452Z,38.67
2018-11-04T11:44:54.733Z,40.77
2018-11-04T11:47:25.010Z,36.97
2018-11-04T11:49:55.302Z,39.10
2018-11-04T11:52:25.639Z,44.63
2018-11-04T11:54:55.894Z,41.07
2018-11-04T11:57:26.229Z,37.63
2018-11-04T11:59:56.476Z,38.07
2018-11-04T12:02:26.752Z,38.90
2018-11-04T12:04:57.079Z,36.83
2018-11-04T12:07:27.370Z,39.67
2018-11-04T12:09:57.693Z,42.57
2018-11-04T12:12:27.990Z,36.70
2018-11-04T12:14:58.382Z,38.70
2018-11-04T12:17:28.704Z,40.87
2018-11-04T12:19:58.993Z,42.57
2018-11-04T12:22:29.290Z,41.93
2018-11-04T12:24:59.613Z,39.97
2018-11-04T12:27:29.851Z,38.47
2018-11-04T12:30:00.353Z,38.87
2018-11-04T12:32:30.588Z,38.87
2018-11-04T12:35:00.862Z,38.00
2018-11-04T12:37:31.128Z,39.33
2018-11-04T12:40:01.337Z,35.53
2018-11-04T12:42:31.669Z,40.37
2018-11-04T12:45:01.898Z,39.50
2018-11-04T12:47:32.153Z,35.90
2018-11-04T12:50:02.414Z,36.10
2018-11-04T12:52:32.763Z,37.97
2018-11-04T12:55:03.068Z,37.57
2018-11-04T12:57:33.312Z,40.23
2018-11-04T13:00:03.842Z,37.50
2018-11-04T13:02:34.508Z,37.80
2018-11-04T13:05:04.746Z,38.77
2018-11-04T13:19:27.197Z,41.47
2018-11-04T13:21:57.418Z,37.07
2018-11-04T13:24:27.628Z,37.23
2018-11-04T13:26:57.907Z,42.10
2018-11-04T13:29:28.121Z,40.70
2018-11-04T13:31:58.388Z,38.40
2018-11-04T13:34:28.692Z,42.57
2018-11-04T13:36:58.907Z,39.70
2018-11-04T13:39:29.226Z,40.10
2018-11-04T13:41:59.553Z,42.67
2018-11-04T13:44:29.772Z,40.90
2018-11-04T13:47:00.116Z,39.37
2018-11-04T13:49:30.479Z,38.97
2018-11-04T13:52:00.667Z,43.03
2018-11-04T13:54:30.951Z,39.57
2018-11-04T13:57:01.222Z,42.00
2018-11-04T13:59:31.413Z,35.57
2018-11-04T14:02:01.682Z,39.07
2018-11-04T14:04:31.914Z,39.73
2018-11-04T14:07:02.188Z,36.50
2018-11-04T14:09:32.446Z,40.93
2018-11-04T14:12:02.769Z,39.87
2018-11-04T14:14:33.054Z,38.77
2018-11-04T14:17:03.286Z,44.17
2018-11-04T14:19:33.565Z,39.30
2018-11-04T14:22:03.820Z,40.97
2018-11-04T14:24:34.067Z,39.47
2018-11-04T14:27:04.361Z,39.30
2018-11-04T14:29:34.658Z,43.33
2018-11-04T14:32:04.873Z,41.37
2018-11-04T14:34:35.068Z,42.03
2018-11-04T14:37:05.328Z,41.10
2018-11-04T14:39:35.602Z,37.60
2018-11-04T14:42:05.991Z,49.80
2018-11-04T14:44:36.180Z,42.90
2018-11-04T14:47:06.553Z,41.87
2018-11-04T14:49:36.790Z,38.23
2018-11-04T14:52:07.087Z,44.13
2018-11-04T14:54:37.290Z,37.40
2018-11-04T14:57:07.574Z,40.33
2018-11-04T14:59:37.777Z,42.17
2018-11-04T15:02:08.012Z,40.23
2018-11-04T15:04:38.260Z,43.17
2018-11-04T15:07:18.777Z,39.37
2018-11-04T15:09:48.990Z,44.17
2018-11-04T15:12:19.274Z,40.50
2018-11-04T15:14:49.519Z,43.80
2018-11-04T15:17:19.752Z,45.57
2018-11-04T15:19:49.981Z,43.83
2018-11-04T15:22:20.264Z,45.97
2018-11-04T15:24:50.572Z,45.97
2018-11-04T15:27:20.738Z,44.90
2018-11-04T15:29:50.933Z,48.00
2018-11-04T15:32:21.201Z,43.90
2018-11-04T15:34:51.564Z,41.47
2018-11-04T15:37:21.637Z,40.53
2018-11-04T15:39:51.869Z,44.43
2018-11-04T15:42:22.117Z,47.03
2018-11-04T15:44:52.310Z,43.63
2018-11-04T15:47:22.526Z,42.33
2018-11-04T15:49:52.723Z,46.17
2018-11-04T15:52:22.937Z,44.20
2018-11-04T15:54:53.227Z,43.83
2018-11-04T15:57:23.433Z,48.43
2018-11-04T15:59:53.677Z,48.93
2018-11-04T16:02:23.855Z,49.30
2018-11-04T16:04:54.045Z,50.17
2018-11-04T16:07:24.250Z,49.57
2018-11-04T16:09:54.581Z,56.73
2018-11-04T16:12:25.014Z,57.17
2018-11-04T16:14:55.330Z,54.53
2018-11-04T16:17:25.532Z,49.90
2018-11-04T16:19:55.756Z,55.40
2018-11-04T16:22:25.926Z,52.10
2018-11-04T16:24:56.138Z,61.27
2018-11-04T16:27:26.429Z,60.00
2018-11-04T16:29:56.637Z,54.30
2018-11-04T16:32:26.800Z,55.33
2018-11-04T16:34:57.026Z,54.77
2018-11-04T16:37:27.178Z,54.70
2018-11-04T16:39:57.369Z,61.40
2018-11-04T16:42:27.560Z,53.13
2018-11-04T16:44:57.741Z,56.40
2018-11-04T16:47:28.022Z,64.03
2018-11-04T16:49:58.324Z,51.27
2018-11-04T16:52:30.653Z,63.80
2018-11-04T16:55:00.910Z,58.13
2018-11-04T16:57:31.192Z,52.63
2018-11-04T17:00:01.381Z,66.63
2018-11-04T17:02:31.639Z,55.70
2018-11-04T17:05:02.573Z,58.40
2018-11-04T17:07:32.944Z,52.87
2018-11-04T17:10:03.152Z,54.17
2018-11-04T17:12:33.467Z,60.23
2018-11-04T17:15:03.682Z,53.67
2018-11-04T17:17:33.829Z,61.47
2018-11-04T17:20:04.166Z,56.67
2018-11-04T17:22:34.399Z,50.93
2018-11-04T17:25:04.610Z,52.10
2018-11-04T17:27:34.825Z,54.10
2018-11-04T17:30:06.909Z,49.10
2018-11-04T17:32:37.285Z,44.60
2018-11-04T17:35:08.915Z,46.20
2018-11-04T17:37:39.320Z,43.40
2018-11-04T17:40:10.796Z,45.70
2018-11-04T17:42:41.083Z,45.57
2018-11-04T17:45:13.549Z,41.17
2018-11-04T17:47:43.848Z,43.57
2018-11-04T17:50:15.827Z,38.43
2018-11-04T17:52:46.291Z,37.33
2018-11-04T17:55:16.671Z,30.07
2018-11-04T17:57:46.957Z,30.67
2018-11-04T18:00:17.818Z,30.87
2018-11-04T18:02:48.108Z,28.50
2018-11-04T18:05:18.372Z,29.30
2018-11-04T18:07:48.558Z,25.63
2018-11-04T18:10:18.778Z,25.47
2018-11-04T18:12:49.003Z,23.07
2018-11-04T18:15:19.234Z,24.23
2018-11-04T18:17:49.436Z,26.67
2018-11-04T18:20:19.691Z,20.87
2018-11-04T18:22:49.940Z,22.83
2018-11-04T18:25:20.252Z,21.03
2018-11-04T18:27:50.450Z,21.10
2018-11-04T18:30:20.733Z,19.67
2018-11-04T18:32:50.998Z,19.67
2018-11-04T18:35:21.488Z,19.80
2018-11-04T18:37:51.694Z,21.20
2018-11-04T18:40:21.960Z,19.33
2018-11-04T18:42:52.341Z,19.63
2018-11-04T18:45:22.519Z,18.07
2018-11-04T18:47:54.014Z,19.73
2018-11-04T18:50:24.390Z,17.40
2018-11-04T18:52:55.016Z,22.37
2018-11-04T18:55:25.188Z,19.63
2018-11-04T18:57:55.556Z,20.23
2018-11-04T19:00:25.812Z,20.33
2018-11-04T19:02:56.236Z,20.40
2018-11-04T19:05:29.004Z,21.47
2018-11-04T19:07:59.409Z,18.77
2018-11-04T19:10:37.215Z,18.97
2018-11-04T19:13:07.746Z,18.63
2018-11-04T19:15:37.997Z,19.00
2018-11-04T19:18:16.599Z,18.73
2018-11-04T19:20:49.184Z,19.53
2018-11-04T19:23:26.966Z,20.90
2018-11-04T19:26:02.162Z,22.80
2018-11-04T19:28:32.482Z,22.97
2018-11-04T19:31:10.085Z,19.63
2018-11-04T19:33:44.896Z,22.30
2018-11-04T19:36:15.364Z,24.93
2018-11-04T19:38:46.761Z,24.33
2018-11-04T19:41:16.997Z,23.80
2018-11-04T19:43:47.151Z,20.40
2018-11-04T19:46:17.428Z,20.90
2018-11-04T19:48:47.742Z,24.03
2018-11-04T19:51:18.051Z,23.97
2018-11-04T19:53:48.363Z,24.07
2018-11-04T19:56:18.653Z,25.67
2018-11-04T19:58:48.888Z,23.33
2018-11-04T20:01:19.138Z,23.70
2018-11-04T20:03:49.325Z,21.20
2018-11-04T20:06:19.560Z,22.00
2018-11-04T20:08:54.712Z,25.40
2018-11-04T20:11:24.892Z,21.03
2018-11-04T20:14:00.150Z,20.40
2018-11-04T20:16:30.354Z,23.33
2018-11-04T20:19:05.732Z,21.00
2018-11-04T20:21:44.928Z,22.53
2018-11-04T20:24:20.183Z,20.83
2018-11-04T20:26:50.681Z,21.90
2018-11-04T20:29:20.932Z,21.83
2018-11-04T20:31:57.319Z,22.87
2018-11-04T20:34:27.552Z,20.47
2018-11-04T20:36:57.933Z,22.63
2018-11-04T20:39:32.997Z,22.57
2018-11-04T20:42:03.271Z,23.23
2018-11-04T20:44:37.547Z,23.30
2018-11-04T20:47:07.772Z,21.97
2018-11-04T20:49:42.805Z,22.47
2018-11-04T20:52:13.038Z,20.03
2018-11-04T20:54:43.222Z,20.50
2018-11-04T20:57:18.542Z,23.03
2018-11-04T20:59:48.837Z,25.43
2018-11-04T21:02:19.256Z,20.67
2018-11-04T21:04:49.321Z,26.43
2018-11-04T21:07:19.560Z,25.07
2018-11-04T21:09:49.798Z,28.90
2018-11-04T21:12:20.029Z,25.57
2018-11-04T21:14:50.331Z,25.30
2018-11-04T21:17:20.892Z,24.77
2018-11-04T21:19:51.282Z,28.23
2018-11-04T21:22:21.575Z,23.37
2018-11-04T21:24:51.954Z,27.60
2018-11-04T21:27:21.993Z,29.17
2018-11-04T21:29:52.405Z,24.73
2018-11-04T21:32:22.531Z,23.80
2018-11-04T21:34:55.975Z,25.93
2018-11-04T21:37:26.805Z,26.70
2018-11-04T21:39:57.017Z,26.37
2018-11-04T21:42:27.261Z,28.27
2018-11-04T21:44:57.472Z,27.43
2018-11-04T21:47:27.696Z,26.63
2018-11-04T21:49:57.890Z,27.73
2018-11-04T21:52:28.119Z,27.50
2018-11-04T21:54:58.344Z,25.80
2018-11-04T22:00:02.765Z,26.33
2018-11-04T22:02:33.069Z,25.53
2018-11-04T22:05:03.149Z,25.40
2018-11-04T22:07:33.449Z,25.97
2018-11-04T22:10:03.754Z,24.57
2018-11-04T22:12:33.991Z,28.47
2018-11-04T22:15:04.410Z,27.27
2018-11-04T22:17:34.635Z,23.97
2018-11-04T22:20:05.355Z,26.07
2018-11-04T22:22:35.620Z,25.60
2018-11-04T22:25:06.352Z,26.47
2018-11-04T22:27:36.597Z,23.87
2018-11-04T22:30:08.293Z,24.00
2018-11-04T22:32:38.816Z,22.90
2018-11-04T22:35:10.691Z,23.87
2018-11-04T22:37:41.013Z,26.20
2018-11-04T22:40:12.247Z,27.23
2018-11-04T22:42:42.835Z,23.50
2018-11-04T22:45:13.444Z,28.10
2018-11-04T22:47:43.816Z,24.77
2018-11-04T22:50:15.162Z,23.37
2018-11-04T22:52:45.515Z,24.67
2018-11-04T22:55:15.914Z,21.67
2018-11-04T22:57:46.225Z,22.07
2018-11-04T23:00:21.580Z,24.50
2018-11-04T23:02:51.856Z,25.33
2018-11-04T23:05:28.411Z,25.03
2018-11-04T23:07:58.622Z,22.20
2018-11-04T23:10:28.795Z,24.60
2018-11-04T23:12:59.013Z,24.93
2018-11-04T23:15:29.222Z,23.70
2018-11-04T23:17:59.495Z,23.63
2018-11-04T23:20:29.710Z,23.53
2018-11-04T23:22:59.908Z,24.37
2018-11-04T23:25:30.133Z,24.43
2018-11-04T23:28:00.375Z,22.03
2018-11-04T23:30:30.615Z,25.33
2018-11-04T23:33:00.804Z,24.50
2018-11-04T23:35:31.064Z,23.87
2018-11-04T23:38:01.245Z,23.30
2018-11-04T23:40:31.486Z,25.13
2018-11-04T23:43:01.696Z,25.17
2018-11-04T23:45:31.917Z,25.20
2018-11-04T23:48:02.141Z,26.50
2018-11-04T23:50:32.309Z,23.63
2018-11-04T23:53:02.569Z,24.23
2018-11-04T23:55:32.788Z,23.57
2018-11-04T23:58:03.000Z,23.73
